createdAt,value
2018-08-18T00:02:26.934Z,15.00
2018-08-18T00:05:01.884Z,14.73
2018-08-18T00:07:37.126Z,13.73
2018-08-18T00:10:13.986Z,14.00
2018-08-18T00:12:49.078Z,15.07
2018-08-18T00:15:24.484Z,14.60
2018-08-18T00:17:59.249Z,16.50
2018-08-18T00:20:34.606Z,15.73
2018-08-18T00:23:10.507Z,18.03
2018-08-18T00:25:45.669Z,16.13
2018-08-18T00:28:25.187Z,16.33
2018-08-18T00:31:00.319Z,15.47
2018-08-18T00:33:35.485Z,13.87
2018-08-18T00:36:10.433Z,15.73
2018-08-18T00:38:45.334Z,16.07
2018-08-18T00:41:20.241Z,14.10
2018-08-18T00:43:55.945Z,14.00
2018-08-18T00:46:32.003Z,14.60
2018-08-18T00:49:07.651Z,13.63
2018-08-18T00:51:42.789Z,12.90
2018-08-18T00:54:17.418Z,12.70
2018-08-18T00:56:52.330Z,14.60
2018-08-18T00:59:40.098Z,14.53
2018-08-18T01:02:14.926Z,14.00
2018-08-18T01:04:56.949Z,13.57
2018-08-18T01:07:32.767Z,15.10
2018-08-18T01:10:08.470Z,13.13
2018-08-18T01:12:43.302Z,13.93
2018-08-18T01:15:24.613Z,14.03
2018-08-18T01:17:59.657Z,13.57
2018-08-18T01:20:35.029Z,13.20
2018-08-18T01:23:09.986Z,13.97
2018-08-18T01:25:44.930Z,13.30
2018-08-18T01:28:20.653Z,12.40
2018-08-18T01:31:07.086Z,13.50
2018-08-18T01:33:42.072Z,12.47
2018-08-18T01:36:16.815Z,13.13
2018-08-18T01:38:51.677Z,12.73
2018-08-18T01:41:26.474Z,13.53
2018-08-18T01:44:32.517Z,13.93
2018-08-18T01:47:09.683Z,13.33
2018-08-18T01:49:44.929Z,12.53
2018-08-18T01:52:26.249Z,11.50
2018-08-18T01:55:01.034Z,11.30
2018-08-18T01:57:35.930Z,11.13
2018-08-18T02:00:23.865Z,11.43
2018-08-18T02:02:58.659Z,10.83
2018-08-18T02:05:33.449Z,11.90
2018-08-18T02:08:08.601Z,12.13
2018-08-18T02:10:43.868Z,12.63
2018-08-18T02:13:18.763Z,12.33
2018-08-18T02:15:53.938Z,12.50
2018-08-18T02:18:28.590Z,13.60
2018-08-18T02:21:03.311Z,12.33
2018-08-18T02:23:38.258Z,11.53
2018-08-18T02:26:13.625Z,12.10
2018-08-18T02:28:48.522Z,10.80
2018-08-18T02:31:23.233Z,11.27
2018-08-18T02:33:58.055Z,10.57
2018-08-18T02:36:32.779Z,12.27
2018-08-18T02:39:07.893Z,13.10
2018-08-18T02:41:54.301Z,12.03
2018-08-18T02:44:29.221Z,12.00
2018-08-18T02:47:03.971Z,12.43
2018-08-18T02:49:44.830Z,13.07
2018-08-18T02:52:28.318Z,13.67
2018-08-18T02:55:04.549Z,14.57
2018-08-18T02:57:43.661Z,14.63
2018-08-18T03:00:24.145Z,15.70
2018-08-18T03:02:59.125Z,15.97
2018-08-18T03:05:33.856Z,16.37
2018-08-18T03:08:08.833Z,14.83
2018-08-18T03:10:43.622Z,14.57
2018-08-18T03:13:18.685Z,16.13
2018-08-18T03:15:53.538Z,20.17
2018-08-18T03:18:51.393Z,20.00
2018-08-18T03:21:31.625Z,22.27
2018-08-18T03:24:16.138Z,21.27
2018-08-18T03:26:54.458Z,21.07
2018-08-18T03:29:30.310Z,21.97
2018-08-18T03:32:05.857Z,22.80
2018-08-18T03:34:40.717Z,23.13
2018-08-18T03:37:26.833Z,25.00
2018-08-18T03:40:01.576Z,26.13
2018-08-18T03:42:40.706Z,26.30
2018-08-18T03:45:15.459Z,20.17
2018-08-18T03:47:50.510Z,16.97
2018-08-18T03:50:30.099Z,19.07
2018-08-18T03:53:04.754Z,21.87
2018-08-18T03:55:40.317Z,24.13
2018-08-18T03:58:15.489Z,24.70
2018-08-18T04:00:50.762Z,26.23
2018-08-18T04:03:25.453Z,28.77
2018-08-18T04:06:00.127Z,30.60
2018-08-18T04:08:35.133Z,29.30
2018-08-18T04:11:10.121Z,28.20
2018-08-18T04:13:44.944Z,28.57
2018-08-18T04:16:19.822Z,27.57
2018-08-18T04:18:59.783Z,27.70
2018-08-18T04:21:34.957Z,29.43
2018-08-18T04:24:10.382Z,28.90
2018-08-18T04:26:47.786Z,30.67
2018-08-18T04:29:22.553Z,29.87
2018-08-18T04:31:59.401Z,31.70
2018-08-18T04:34:34.969Z,30.17
2018-08-18T04:37:09.713Z,28.17
2018-08-18T04:39:44.539Z,29.90
2018-08-18T04:42:19.389Z,28.93
2018-08-18T04:44:54.673Z,29.13
2018-08-18T04:47:30.880Z,29.93
2018-08-18T04:50:05.654Z,30.67
2018-08-18T04:52:41.241Z,30.33
2018-08-18T04:55:16.451Z,30.37
2018-08-18T04:57:51.713Z,33.13
2018-08-18T05:00:27.864Z,28.80
2018-08-18T05:03:03.209Z,31.33
2018-08-18T05:05:38.011Z,33.03
2018-08-18T05:08:12.812Z,32.57
2018-08-18T05:10:47.630Z,30.40
2018-08-18T05:13:22.754Z,29.30
2018-08-18T05:15:57.725Z,30.07
2018-08-18T05:18:32.673Z,28.13
2018-08-18T05:21:07.357Z,28.77
2018-08-18T05:23:42.400Z,30.30
2018-08-18T05:26:17.297Z,30.57
2018-08-18T05:28:51.946Z,31.00
2018-08-18T05:31:26.730Z,30.43
2018-08-18T05:34:02.010Z,30.70
2018-08-18T05:36:36.808Z,32.70
2018-08-18T05:39:12.195Z,32.37
2018-08-18T05:41:46.809Z,31.97
2018-08-18T05:44:21.934Z,31.03
2018-08-18T05:46:56.788Z,32.33
2018-08-18T05:49:31.577Z,32.87
2018-08-18T05:52:06.857Z,29.47
2018-08-18T05:54:42.513Z,30.30
2018-08-18T05:57:17.869Z,31.13
2018-08-18T05:59:53.381Z,32.07
2018-08-18T06:02:28.548Z,29.90
2018-08-18T06:05:03.897Z,32.60
2018-08-18T06:07:39.010Z,33.17
2018-08-18T06:10:14.121Z,28.37
2018-08-18T06:12:49.174Z,28.90
2018-08-18T06:15:24.322Z,30.70
2018-08-18T06:17:59.267Z,30.40
2018-08-18T06:20:34.187Z,31.20
2018-08-18T06:23:08.822Z,30.67
2018-08-18T06:25:43.752Z,30.57
2018-08-18T06:28:18.789Z,29.13
2018-08-18T06:30:53.708Z,30.00
2018-08-18T06:33:28.741Z,32.07
2018-08-18T06:36:04.081Z,32.13
2018-08-18T06:38:39.728Z,31.20
2018-08-18T06:41:14.475Z,29.20
2018-08-18T06:43:49.661Z,29.77
2018-08-18T06:46:25.157Z,29.03
2018-08-18T06:49:00.614Z,31.23
2018-08-18T06:51:36.133Z,29.57
2018-08-18T06:54:11.009Z,29.17
2018-08-18T06:56:46.267Z,31.60
2018-08-18T06:59:21.674Z,30.90
2018-08-18T07:01:57.089Z,32.45
2018-08-18T07:04:32.493Z,31.15
2018-08-18T07:07:08.229Z,29.12
2018-08-18T07:09:42.982Z,31.20
2018-08-18T07:12:18.389Z,33.40
2018-08-18T07:15:02.764Z,33.00
2018-08-18T07:17:38.673Z,33.78
2018-08-18T07:20:14.481Z,32.13
2018-08-18T07:22:49.568Z,34.40
2018-08-18T07:25:24.770Z,32.42
2018-08-18T07:28:05.477Z,30.32
2018-08-18T07:30:40.837Z,28.67
2018-08-18T07:33:16.564Z,26.17
2018-08-18T07:35:52.622Z,26.00
2018-08-18T07:38:27.957Z,26.35
2018-08-18T07:41:03.641Z,26.50
2018-08-18T07:43:39.187Z,24.32
2018-08-18T07:46:14.399Z,24.25
2018-08-18T07:48:50.274Z,25.68
2018-08-18T07:51:33.415Z,25.62
2018-08-18T07:54:08.772Z,26.68
2018-08-18T07:56:44.146Z,27.37
2018-08-18T07:59:19.437Z,26.97
2018-08-18T08:01:55.015Z,26.33
2018-08-18T08:04:30.493Z,24.90
2018-08-18T08:07:05.969Z,25.75
2018-08-18T08:12:42.415Z,24.57
2018-08-18T08:15:18.614Z,26.05
2018-08-18T08:17:53.939Z,26.60
2018-08-18T08:20:29.862Z,26.20
2018-08-18T08:23:05.771Z,25.72
2018-08-18T08:25:41.286Z,26.27
2018-08-18T08:28:16.994Z,25.17
2018-08-18T08:30:52.487Z,25.62
2018-08-18T08:33:37.126Z,24.98
2018-08-18T08:36:15.197Z,24.77
2018-08-18T08:38:57.804Z,24.72
2018-08-18T08:41:33.707Z,25.02
2018-08-18T08:44:09.166Z,25.00
2018-08-18T08:46:57.184Z,25.15
2018-08-18T08:49:32.610Z,25.05
2018-08-18T08:52:08.448Z,24.65
2018-08-18T08:54:44.457Z,24.55
2018-08-18T08:57:19.778Z,23.90
2018-08-18T08:59:55.246Z,22.35
2018-08-18T09:02:30.638Z,21.80
2018-08-18T09:05:07.365Z,22.10
2018-08-18T09:07:42.885Z,21.45
2018-08-18T09:10:19.062Z,20.82
2018-08-18T09:12:54.429Z,21.15
2018-08-18T09:15:29.950Z,20.43
2018-08-18T09:18:05.892Z,18.48
2018-08-18T09:20:46.211Z,19.42
2018-08-18T09:23:21.893Z,18.42
2018-08-18T09:25:57.741Z,19.73
2018-08-18T09:28:33.398Z,19.45
2018-08-18T09:31:08.756Z,18.20
2018-08-18T09:33:44.005Z,19.80
2018-08-18T09:36:20.016Z,19.42
2018-08-18T09:38:55.323Z,20.00
2018-08-18T09:41:31.157Z,19.62
2018-08-18T09:44:06.616Z,20.35
2018-08-18T09:46:42.485Z,19.87
2018-08-18T09:49:18.317Z,20.82
2018-08-18T09:51:53.740Z,20.52
2018-08-18T09:54:29.702Z,20.17
2018-08-18T09:57:05.469Z,20.20
2018-08-18T09:59:41.493Z,20.45
2018-08-18T10:02:16.768Z,19.82
2018-08-18T10:04:52.649Z,19.85
2018-08-18T10:07:28.060Z,19.65
2018-08-18T10:10:03.757Z,20.90
2018-08-18T10:12:39.017Z,19.20
2018-08-18T10:15:14.620Z,19.10
2018-08-18T10:17:50.766Z,19.12
2018-08-18T10:20:26.586Z,20.15
2018-08-18T10:23:02.121Z,17.65
2018-08-18T10:25:37.584Z,17.75
2018-08-18T10:28:12.884Z,18.02
2018-08-18T10:30:51.242Z,15.85
2018-08-18T10:33:27.307Z,17.25
2018-08-18T10:36:03.861Z,17.15
2018-08-18T10:38:39.448Z,17.32
2018-08-18T10:41:15.037Z,16.90
2018-08-18T10:43:50.476Z,18.50
2018-08-18T10:46:25.889Z,16.00
2018-08-18T10:49:01.261Z,16.17
2018-08-18T10:51:47.589Z,14.23
2018-08-18T10:54:23.057Z,15.30
2018-08-18T10:56:58.432Z,12.03
2018-08-18T10:59:44.806Z,14.27
2018-08-18T11:02:32.058Z,14.20
2018-08-18T11:05:07.965Z,14.63
2018-08-18T11:07:44.262Z,11.63
2018-08-18T11:10:19.314Z,11.17
2018-08-18T11:12:54.954Z,12.47
2018-08-18T11:15:30.271Z,11.47
2018-08-18T11:18:05.987Z,13.33
2018-08-18T11:20:41.406Z,12.93
2018-08-18T11:23:16.526Z,11.77
2018-08-18T11:25:52.939Z,11.60
2018-08-18T11:28:28.014Z,13.73
2018-08-18T11:31:03.335Z,13.60
2018-08-18T11:33:40.949Z,12.17
2018-08-18T11:36:16.018Z,10.13
2018-08-18T11:38:51.306Z,10.13
2018-08-18T11:41:27.213Z,10.80
2018-08-18T11:44:02.998Z,10.37
2018-08-18T11:46:41.282Z,12.37
2018-08-18T11:49:16.742Z,9.93
2018-08-18T11:51:52.216Z,10.47
2018-08-18T11:54:27.212Z,9.70
2018-08-18T11:57:03.269Z,9.33
2018-08-18T11:59:38.225Z,11.40
2018-08-18T12:02:13.382Z,11.47
2018-08-18T12:04:49.392Z,11.13
2018-08-18T12:07:24.426Z,9.87
2018-08-18T12:09:59.545Z,11.13
2018-08-18T12:12:35.143Z,11.30
2018-08-18T12:15:10.384Z,9.63
2018-08-18T12:17:55.508Z,10.13
2018-08-18T12:20:31.280Z,9.73
2018-08-18T12:23:07.274Z,9.70
2018-08-18T12:25:42.566Z,9.67
2018-08-18T12:28:17.784Z,8.77
2018-08-18T12:30:53.469Z,8.60
2018-08-18T12:33:30.566Z,10.50
2018-08-18T12:36:05.922Z,10.33
2018-08-18T12:38:42.591Z,10.13
2018-08-18T12:41:17.988Z,10.27
2018-08-18T12:43:55.373Z,10.23
2018-08-18T12:46:37.137Z,10.77
2018-08-18T12:49:12.390Z,10.40
2018-08-18T12:51:48.008Z,9.33
2018-08-18T12:54:23.280Z,8.47
2018-08-18T12:56:58.271Z,9.27
2018-08-18T12:59:34.400Z,9.73
2018-08-18T13:02:09.471Z,8.37
2018-08-18T13:04:44.722Z,8.57
2018-08-18T13:07:20.576Z,7.27
2018-08-18T13:10:07.477Z,8.40
2018-08-18T13:12:42.422Z,8.30
2018-08-18T13:15:18.212Z,7.63
2018-08-18T13:17:54.522Z,8.10
2018-08-18T13:20:29.552Z,8.43
2018-08-18T13:23:04.759Z,7.33
2018-08-18T13:25:41.263Z,7.53
2018-08-18T13:28:17.050Z,7.20
2018-08-18T13:30:52.365Z,7.40
2018-08-18T13:33:30.003Z,7.37
2018-08-18T13:36:05.179Z,6.83
2018-08-18T13:38:40.450Z,7.57
2018-08-18T13:41:15.665Z,8.10
2018-08-18T13:43:50.651Z,7.67
2018-08-18T13:46:36.894Z,8.70
2018-08-18T13:49:12.474Z,7.80
2018-08-18T13:51:47.916Z,7.97
2018-08-18T13:54:23.080Z,7.87
2018-08-18T13:56:58.206Z,6.60
2018-08-18T13:59:41.269Z,6.50
2018-08-18T14:02:16.393Z,6.23
2018-08-18T14:04:51.722Z,7.10
2018-08-18T14:07:26.802Z,7.33
2018-08-18T14:10:02.117Z,7.33
2018-08-18T14:12:37.216Z,7.00
2018-08-18T14:15:13.189Z,7.60
2018-08-18T14:17:51.986Z,6.80
2018-08-18T14:20:27.162Z,7.30
2018-08-18T14:23:08.316Z,7.20
2018-08-18T14:25:43.677Z,7.10
2018-08-18T14:28:18.636Z,8.03
2018-08-18T14:30:53.825Z,7.73
2018-08-18T14:33:29.293Z,7.00
2018-08-18T14:36:10.707Z,8.93
2018-08-18T14:38:47.369Z,8.90
2018-08-18T14:41:37.112Z,9.40
2018-08-18T14:44:12.329Z,8.60
2018-08-18T14:46:47.584Z,9.00
2018-08-18T14:49:23.060Z,9.23
2018-08-18T14:51:58.128Z,9.97
2018-08-18T14:54:33.544Z,8.77
2018-08-18T14:57:09.453Z,9.10
2018-08-18T14:59:44.993Z,7.80
2018-08-18T15:02:20.172Z,8.00
2018-08-18T15:04:55.087Z,8.70
2018-08-18T15:07:31.093Z,7.87
2018-08-18T15:10:06.098Z,8.53
2018-08-18T15:12:41.330Z,7.30
2018-08-18T15:15:16.429Z,7.93
2018-08-18T15:17:52.733Z,8.27
2018-08-18T15:20:29.477Z,7.73
2018-08-18T15:23:06.329Z,7.17
2018-08-18T15:25:42.305Z,7.67
2018-08-18T15:28:19.159Z,7.00
2018-08-18T15:30:55.245Z,6.80
2018-08-18T15:33:30.617Z,6.80
2018-08-18T15:36:16.425Z,7.17
2018-08-18T15:38:52.573Z,6.50
2018-08-18T15:41:28.333Z,6.80
2018-08-18T15:44:09.260Z,6.60
2018-08-18T15:46:44.398Z,6.60
2018-08-18T15:49:20.078Z,6.33
2018-08-18T15:51:56.514Z,6.70
2018-08-18T15:54:31.677Z,6.20
2018-08-18T15:57:07.216Z,6.90
2018-08-18T15:59:49.656Z,6.80
2018-08-18T16:02:24.945Z,7.10
2018-08-18T16:05:00.573Z,6.13
2018-08-18T16:07:35.678Z,6.97
2018-08-18T16:10:10.730Z,7.33
2018-08-18T16:12:47.029Z,6.90
2018-08-18T16:15:23.612Z,6.87
2018-08-18T16:17:58.768Z,6.53
2018-08-18T16:20:33.853Z,7.33
2018-08-18T16:23:13.089Z,6.67
2018-08-18T16:25:48.240Z,6.57
2018-08-18T16:28:40.533Z,6.90
2018-08-18T16:31:15.668Z,6.70
2018-08-18T16:33:52.034Z,6.60
2018-08-18T16:36:30.880Z,6.60
2018-08-18T16:39:06.731Z,5.93
2018-08-18T16:41:41.897Z,6.33
2018-08-18T16:44:17.524Z,6.20
2018-08-18T16:46:52.654Z,6.60
2018-08-18T16:49:27.943Z,6.47
2018-08-18T16:52:03.000Z,6.83
2018-08-18T16:54:38.153Z,6.20
2018-08-18T16:57:13.369Z,5.93
2018-08-18T16:59:48.852Z,6.25
2018-08-18T17:02:34.018Z,6.78
2018-08-18T17:05:10.183Z,7.25
2018-08-18T17:07:45.861Z,6.83
2018-08-18T17:10:21.609Z,6.75
2018-08-18T17:12:59.417Z,6.45
2018-08-18T17:15:34.945Z,6.55
2018-08-18T17:18:10.082Z,6.62
2018-08-18T17:20:55.391Z,6.17
2018-08-18T17:23:32.427Z,6.30
2018-08-18T17:26:08.197Z,5.90
2018-08-18T17:28:43.563Z,6.53
2018-08-18T17:31:18.969Z,6.60
2018-08-18T17:33:54.430Z,6.30
2018-08-18T17:36:29.806Z,6.05
2018-08-18T17:39:06.665Z,5.87
2018-08-18T17:41:42.205Z,6.70
2018-08-18T17:44:17.654Z,6.58
2018-08-18T17:46:54.996Z,6.20
2018-08-18T17:49:30.625Z,7.22
2018-08-18T17:52:08.470Z,6.17
2018-08-18T17:54:53.359Z,6.37
2018-08-18T17:57:28.690Z,6.47
2018-08-18T18:00:10.565Z,6.08
2018-08-18T18:02:52.610Z,6.67
2018-08-18T18:05:29.955Z,6.80
2018-08-18T18:08:06.910Z,7.00
2018-08-18T18:10:42.638Z,7.47
2018-08-18T18:13:24.414Z,7.33
2018-08-18T18:16:00.339Z,7.25
2018-08-18T18:18:41.107Z,7.22
2018-08-18T18:21:16.611Z,7.42
2018-08-18T18:23:53.301Z,7.80
2018-08-18T18:26:29.731Z,7.55
2018-08-18T18:29:05.317Z,7.92
2018-08-18T18:31:41.320Z,7.87
2018-08-18T18:34:16.726Z,8.03
2018-08-18T18:36:52.418Z,7.78
2018-08-18T18:39:27.806Z,7.87
2018-08-18T18:42:03.340Z,8.55
2018-08-18T18:44:39.049Z,7.75
2018-08-18T18:47:14.534Z,8.15
2018-08-18T18:49:50.262Z,8.15
2018-08-18T18:52:26.451Z,8.20
2018-08-18T18:55:01.883Z,8.93
2018-08-18T18:57:37.165Z,9.03
2018-08-18T19:00:12.801Z,8.78
2018-08-18T19:02:48.418Z,9.63
2018-08-18T19:05:26.392Z,11.18
2018-08-18T19:08:07.047Z,11.97
2018-08-18T19:10:42.813Z,11.03
2018-08-18T19:13:18.058Z,10.88
2018-08-18T19:15:53.661Z,11.38
2018-08-18T19:18:29.339Z,10.58
2018-08-18T19:21:04.745Z,9.58
2018-08-18T19:23:40.241Z,9.90
2018-08-18T19:26:15.911Z,10.50
2018-08-18T19:28:51.519Z,10.08
2018-08-18T19:31:35.639Z,10.60
2018-08-18T19:34:13.823Z,10.60
2018-08-18T19:37:08.897Z,10.65
2018-08-18T19:39:44.188Z,10.45
2018-08-18T19:42:20.215Z,10.20
2018-08-18T19:44:55.717Z,9.68
2018-08-18T19:47:36.521Z,9.75
2018-08-18T19:50:12.081Z,9.98
2018-08-18T19:52:47.597Z,10.60
2018-08-18T19:55:23.182Z,10.05
2018-08-18T19:57:58.662Z,9.65
2018-08-18T20:00:34.786Z,9.93
2018-08-18T20:03:11.743Z,9.80
2018-08-18T20:05:47.430Z,10.03
2018-08-18T20:08:25.519Z,10.20
2018-08-18T20:11:01.811Z,10.72
2018-08-18T20:13:37.317Z,9.75
2018-08-18T20:16:13.005Z,10.05
2018-08-18T20:18:49.308Z,9.80
2018-08-18T20:21:25.002Z,10.00
2018-08-18T20:24:00.581Z,9.80
2018-08-18T20:26:36.191Z,10.05
2018-08-18T20:29:11.570Z,10.10
2018-08-18T20:31:58.391Z,10.13
2018-08-18T20:34:33.984Z,9.98
2018-08-18T20:37:09.619Z,10.55
2018-08-18T20:39:45.217Z,10.48
2018-08-18T20:42:27.109Z,10.82
2018-08-18T20:45:02.806Z,10.98
2018-08-18T20:47:39.374Z,10.43
2018-08-18T20:50:15.578Z,11.08
2018-08-18T20:52:52.878Z,10.60
2018-08-18T20:55:28.896Z,10.32
2018-08-18T20:58:04.131Z,10.10
2018-08-18T21:00:39.539Z,10.23
2018-08-18T21:03:15.046Z,10.68
2018-08-18T21:05:50.485Z,10.85
2018-08-18T21:08:25.887Z,10.58
2018-08-18T21:11:01.296Z,11.48
2018-08-18T21:13:37.739Z,11.40
2018-08-18T21:16:13.770Z,11.20
2018-08-18T21:18:49.478Z,10.88
2018-08-18T21:21:35.629Z,11.30
2018-08-18T21:24:11.187Z,11.18
2018-08-18T21:26:47.617Z,11.35
2018-08-18T21:29:26.276Z,11.18
2018-08-18T21:32:01.467Z,11.12
2018-08-18T21:34:43.993Z,11.63
2018-08-18T21:37:19.930Z,11.55
2018-08-18T21:39:55.162Z,10.90
2018-08-18T21:42:30.833Z,11.40
2018-08-18T21:45:09.686Z,11.73
2018-08-18T21:47:45.831Z,11.88
2018-08-18T21:50:21.310Z,11.80
2018-08-18T21:53:03.167Z,11.95
2018-08-18T21:55:38.878Z,11.33
2018-08-18T21:58:14.251Z,11.33
2018-08-18T22:00:49.918Z,12.05
2018-08-18T22:03:25.404Z,12.15
2018-08-18T22:06:00.971Z,11.80
2018-08-18T22:08:36.350Z,12.20
2018-08-18T22:11:16.353Z,11.05
2018-08-18T22:13:52.635Z,11.73
2018-08-18T22:16:28.574Z,12.23
2018-08-18T22:19:04.654Z,11.83
2018-08-18T22:21:40.545Z,11.90
2018-08-18T22:24:16.053Z,12.13
2018-08-18T22:26:51.494Z,12.82
2018-08-18T22:29:27.549Z,12.93
2018-08-18T22:32:08.837Z,12.15
2018-08-18T22:34:44.139Z,13.03
2018-08-18T22:37:19.576Z,12.65
2018-08-18T22:39:55.143Z,11.83
2018-08-18T22:42:30.898Z,12.13
2018-08-18T22:45:17.566Z,12.53
2018-08-18T22:47:53.036Z,11.53
2018-08-18T22:50:28.901Z,11.97
2018-08-18T22:53:04.708Z,12.35
2018-08-18T22:55:40.010Z,11.80
2018-08-18T22:58:15.335Z,12.88
2018-08-18T23:00:56.174Z,12.28
2018-08-18T23:03:32.030Z,13.78
2018-08-18T23:06:07.339Z,12.05
2018-08-18T23:08:43.055Z,13.18
2018-08-18T23:11:19.210Z,12.90
2018-08-18T23:13:54.802Z,14.47
2018-08-18T23:16:30.483Z,13.18
2018-08-18T23:19:05.795Z,12.95
2018-08-18T23:21:41.143Z,12.63
2018-08-18T23:24:40.435Z,12.68
2018-08-18T23:27:15.873Z,13.20
2018-08-18T23:29:51.482Z,12.47
2018-08-18T23:32:26.926Z,12.98
2018-08-18T23:35:02.911Z,13.40
2018-08-18T23:37:37.889Z,13.73
2018-08-18T23:40:12.887Z,13.53
2018-08-18T23:42:48.399Z,12.68
2018-08-18T23:45:24.866Z,12.07
2018-08-18T23:48:05.352Z,12.63
2018-08-18T23:50:41.552Z,12.78
2018-08-18T23:53:18.315Z,15.23
2018-08-18T23:55:58.425Z,14.87
2018-08-18T23:58:33.878Z,14.47
